createdAt,value
2019-03-31T00:00:51.105Z,1012.69
2019-03-31T00:01:51.088Z,1012.68
2019-03-31T00:02:51.361Z,1012.70
2019-03-31T00:03:51.041Z,1012.72
2019-03-31T00:05:51.027Z,1012.74
2019-03-31T00:07:51.074Z,1012.74
2019-03-31T00:08:51.629Z,1012.71
2019-03-31T00:09:51.519Z,1012.73
2019-03-31T00:10:50.887Z,1012.72
2019-03-31T00:11:50.872Z,1012.71
2019-03-31T00:12:50.848Z,1012.74
2019-03-31T00:14:50.795Z,1012.71
2019-03-31T00:15:50.782Z,1012.70
2019-03-31T00:16:52.640Z,1012.69
2019-03-31T00:17:50.833Z,1012.68
2019-03-31T00:18:50.822Z,1012.70
2019-03-31T00:19:50.685Z,1012.73
2019-03-31T00:20:52.162Z,1012.70
2019-03-31T00:21:50.745Z,1012.69
2019-03-31T00:22:50.621Z,1012.71
2019-03-31T00:24:53.427Z,1012.74
2019-03-31T00:25:50.656Z,1012.75
2019-03-31T00:26:50.549Z,1012.73
2019-03-31T00:27:50.508Z,1012.72
2019-03-31T00:30:50.450Z,1012.75
2019-03-31T00:31:50.727Z,1012.76
2019-03-31T00:32:50.412Z,1012.75
2019-03-31T00:33:50.384Z,1012.73
2019-03-31T00:34:50.359Z,1012.74
2019-03-31T00:35:50.372Z,1012.77
2019-03-31T00:36:50.316Z,1012.77
2019-03-31T00:37:50.287Z,1012.77
2019-03-31T00:38:50.667Z,1012.76
2019-03-31T00:39:50.242Z,1012.78
2019-03-31T00:40:50.229Z,1012.75
2019-03-31T00:41:50.218Z,1012.76
2019-03-31T00:42:50.179Z,1012.76
2019-03-31T00:43:50.171Z,1012.78
2019-03-31T00:44:50.147Z,1012.78
2019-03-31T00:45:50.428Z,1012.77
2019-03-31T00:46:50.091Z,1012.75
2019-03-31T00:47:50.281Z,1012.77
2019-03-31T00:48:50.054Z,1012.77
2019-03-31T00:49:50.036Z,1012.81
2019-03-31T00:50:50.060Z,1012.81
2019-03-31T00:51:50.283Z,1012.78
2019-03-31T00:53:50.031Z,1012.78
2019-03-31T00:54:50.034Z,1012.79
2019-03-31T00:55:49.892Z,1012.80
2019-03-31T00:56:51.306Z,1012.80
2019-03-31T00:57:50.094Z,1012.81
2019-03-31T00:58:50.226Z,1012.75
2019-03-31T01:00:49.875Z,1012.80
2019-03-31T01:01:49.761Z,1012.81
2019-03-31T01:02:50.032Z,1012.85
2019-03-31T01:03:50.070Z,1012.83
2019-03-31T01:05:49.767Z,1012.87
2019-03-31T01:06:49.843Z,1012.86
2019-03-31T01:07:49.622Z,1012.90
2019-03-31T01:08:49.603Z,1012.86
2019-03-31T01:09:49.875Z,1012.91
2019-03-31T01:10:49.558Z,1012.92
2019-03-31T01:13:49.483Z,1013.00
2019-03-31T01:14:49.461Z,1013.04
2019-03-31T01:16:49.715Z,1013.02
2019-03-31T01:17:49.506Z,1013.02
2019-03-31T01:20:49.329Z,1013.06
2019-03-31T01:21:49.304Z,1013.03
2019-03-31T01:22:49.587Z,1013.09
2019-03-31T01:23:49.262Z,1013.07
2019-03-31T01:24:49.235Z,1013.09
2019-03-31T01:25:49.221Z,1013.11
2019-03-31T01:26:49.198Z,1013.07
2019-03-31T01:27:49.261Z,1013.12
2019-03-31T01:28:49.151Z,1013.04
2019-03-31T01:29:49.444Z,1013.11
2019-03-31T01:30:49.100Z,1013.09
2019-03-31T01:31:50.586Z,1013.09
2019-03-31T01:32:49.156Z,1013.13
2019-03-31T01:33:49.226Z,1013.11
2019-03-31T01:34:49.729Z,1013.08
2019-03-31T01:35:49.086Z,1013.07
2019-03-31T01:37:49.271Z,1013.09
2019-03-31T01:38:48.982Z,1013.11
2019-03-31T01:39:48.888Z,1013.03
2019-03-31T01:40:48.884Z,1013.07
2019-03-31T01:41:48.848Z,1013.06
2019-03-31T01:43:48.803Z,1013.02
2019-03-31T01:44:49.075Z,1013.02
2019-03-31T01:45:48.761Z,1013.03
2019-03-31T01:46:48.730Z,1013.00
2019-03-31T01:47:49.019Z,1013.05
2019-03-31T01:48:48.785Z,1013.04
2019-03-31T01:49:48.660Z,1013.03
2019-03-31T01:50:48.648Z,1013.07
2019-03-31T01:51:48.935Z,1013.05
2019-03-31T01:52:49.296Z,1013.05
2019-03-31T01:53:48.576Z,1013.17
2019-03-31T01:54:48.685Z,1013.12
2019-03-31T01:56:48.506Z,1013.15
2019-03-31T01:57:48.490Z,1013.16
2019-03-31T01:58:48.757Z,1013.12
2019-03-31T01:59:48.429Z,1013.16
2019-03-31T02:00:48.407Z,1013.16
2019-03-31T02:01:48.585Z,1013.17
2019-03-31T02:02:48.463Z,1013.19
2019-03-31T02:03:48.349Z,1013.17
2019-03-31T02:04:48.420Z,1013.17
2019-03-31T02:05:48.595Z,1013.15
2019-03-31T02:06:48.278Z,1013.15
2019-03-31T02:08:48.244Z,1013.17
2019-03-31T02:09:48.205Z,1013.19
2019-03-31T02:10:48.276Z,1013.16
2019-03-31T02:11:48.401Z,1013.18
2019-03-31T02:12:48.125Z,1013.19
2019-03-31T02:13:48.141Z,1013.19
2019-03-31T02:14:48.131Z,1013.15
2019-03-31T02:15:48.060Z,1013.11
2019-03-31T02:16:48.037Z,1013.10
2019-03-31T02:17:48.311Z,1013.15
2019-03-31T02:18:47.986Z,1013.14
2019-03-31T02:19:47.980Z,1013.10
2019-03-31T02:20:47.943Z,1013.08
2019-03-31T02:21:47.976Z,1013.10
2019-03-31T02:22:47.898Z,1013.14
2019-03-31T02:23:48.126Z,1013.12
2019-03-31T02:25:47.926Z,1013.11
2019-03-31T02:26:48.102Z,1013.15
2019-03-31T02:27:47.783Z,1013.15
2019-03-31T02:28:47.753Z,1013.16
2019-03-31T02:29:48.037Z,1013.15
2019-03-31T02:30:47.815Z,1013.17
2019-03-31T02:31:47.691Z,1013.25
2019-03-31T02:32:47.660Z,1013.28
2019-03-31T02:33:47.739Z,1013.35
2019-03-31T02:34:47.926Z,1013.32
2019-03-31T02:35:47.891Z,1013.37
2019-03-31T02:36:47.650Z,1013.36
2019-03-31T02:37:47.654Z,1013.42
2019-03-31T02:38:47.636Z,1013.45
2019-03-31T02:40:47.500Z,1013.48
2019-03-31T02:41:47.763Z,1013.49
2019-03-31T02:42:47.537Z,1013.51
2019-03-31T02:43:47.407Z,1013.49
2019-03-31T02:44:47.480Z,1013.43
2019-03-31T02:45:47.357Z,1013.52
2019-03-31T02:46:47.472Z,1013.52
2019-03-31T02:47:47.612Z,1013.46
2019-03-31T02:48:47.351Z,1013.55
2019-03-31T02:49:47.298Z,1013.54
2019-03-31T02:51:47.336Z,1013.54
2019-03-31T02:52:47.195Z,1013.60
2019-03-31T02:53:47.171Z,1013.58
2019-03-31T02:55:47.491Z,1013.64
2019-03-31T02:56:47.204Z,1013.68
2019-03-31T02:58:47.463Z,1013.73
2019-03-31T02:59:47.333Z,1013.69
2019-03-31T03:00:47.105Z,1013.71
2019-03-31T03:01:46.987Z,1013.73
2019-03-31T03:03:48.063Z,1013.82
2019-03-31T03:04:46.915Z,1013.84
2019-03-31T03:05:46.895Z,1013.84
2019-03-31T03:06:46.979Z,1013.87
2019-03-31T03:07:46.853Z,1013.85
2019-03-31T03:08:46.831Z,1013.89
2019-03-31T03:09:46.810Z,1013.89
2019-03-31T03:10:47.183Z,1013.88
2019-03-31T03:11:46.765Z,1013.85
2019-03-31T03:13:46.718Z,1013.90
2019-03-31T03:14:47.614Z,1013.89
2019-03-31T03:15:46.665Z,1013.96
2019-03-31T03:16:46.654Z,1013.91
2019-03-31T03:17:46.919Z,1013.94
2019-03-31T03:18:46.599Z,1013.91
2019-03-31T03:19:46.673Z,1013.91
2019-03-31T03:20:46.600Z,1013.93
2019-03-31T03:21:46.637Z,1013.95
2019-03-31T03:22:46.504Z,1013.97
2019-03-31T03:23:46.487Z,1013.97
2019-03-31T03:24:46.765Z,1013.98
2019-03-31T03:26:46.473Z,1014.04
2019-03-31T03:27:46.505Z,1014.07
2019-03-31T03:28:46.381Z,1014.07
2019-03-31T03:29:46.414Z,1014.07
2019-03-31T03:30:46.430Z,1014.09
2019-03-31T03:31:46.612Z,1014.07
2019-03-31T03:33:12.425Z,1014.11
2019-03-31T03:33:46.251Z,1014.09
2019-03-31T03:34:46.278Z,1014.07
2019-03-31T03:35:46.426Z,1014.11
2019-03-31T03:36:46.189Z,1014.11
2019-03-31T03:37:46.467Z,1014.12
2019-03-31T03:38:46.146Z,1014.12
2019-03-31T03:40:46.088Z,1014.12
2019-03-31T03:41:46.189Z,1014.11
2019-03-31T03:42:46.061Z,1014.18
2019-03-31T03:43:55.389Z,1014.14
2019-03-31T03:44:46.101Z,1014.13
2019-03-31T03:45:46.035Z,1014.18
2019-03-31T03:47:45.946Z,1014.22
2019-03-31T03:49:45.993Z,1014.23
2019-03-31T03:50:46.213Z,1014.20
2019-03-31T03:51:46.141Z,1014.24
2019-03-31T03:52:45.822Z,1014.25
2019-03-31T03:54:45.769Z,1014.29
2019-03-31T03:56:45.853Z,1014.24
2019-03-31T03:57:46.011Z,1014.21
2019-03-31T03:58:45.801Z,1014.19
2019-03-31T04:01:45.612Z,1014.23
2019-03-31T04:02:45.691Z,1014.14
2019-03-31T04:03:45.869Z,1014.13
2019-03-31T04:05:45.635Z,1014.12
2019-03-31T04:08:45.549Z,1014.12
2019-03-31T04:10:45.710Z,1014.13
2019-03-31T04:11:45.387Z,1014.15
2019-03-31T04:12:45.374Z,1014.14
2019-03-31T04:13:45.344Z,1014.09
2019-03-31T04:14:45.421Z,1014.12
2019-03-31T04:15:45.304Z,1014.07
2019-03-31T04:16:45.574Z,1014.08
2019-03-31T04:17:45.549Z,1014.13
2019-03-31T04:18:45.272Z,1014.11
2019-03-31T04:19:45.209Z,1014.15
2019-03-31T04:20:45.185Z,1014.15
2019-03-31T04:21:45.153Z,1014.13
2019-03-31T04:22:45.236Z,1014.15
2019-03-31T04:23:45.126Z,1014.15
2019-03-31T04:24:45.421Z,1014.08
2019-03-31T04:25:45.064Z,1014.11
2019-03-31T04:26:45.039Z,1014.12
2019-03-31T04:27:45.021Z,1014.13
2019-03-31T04:28:45.169Z,1014.12
2019-03-31T04:29:44.968Z,1014.13
2019-03-31T04:30:44.951Z,1014.12
2019-03-31T04:31:45.277Z,1014.13
2019-03-31T04:32:44.911Z,1014.15
2019-03-31T04:33:51.498Z,1014.14
2019-03-31T04:34:44.856Z,1014.18
2019-03-31T04:35:44.832Z,1014.18
2019-03-31T04:36:44.822Z,1014.18
2019-03-31T04:37:45.087Z,1014.20
2019-03-31T04:38:45.776Z,1014.22
2019-03-31T04:39:44.744Z,1014.24
2019-03-31T04:40:44.717Z,1014.29
2019-03-31T04:41:44.792Z,1014.27
2019-03-31T04:43:44.760Z,1014.27
2019-03-31T04:45:44.916Z,1014.33
2019-03-31T04:46:44.890Z,1014.28
2019-03-31T04:47:44.582Z,1014.31
2019-03-31T04:48:44.551Z,1014.30
2019-03-31T04:49:44.566Z,1014.35
2019-03-31T04:50:44.486Z,1014.34
2019-03-31T04:51:44.704Z,1014.34
2019-03-31T04:52:44.736Z,1014.38
2019-03-31T04:53:44.525Z,1014.36
2019-03-31T04:54:44.702Z,1014.39
2019-03-31T04:55:44.369Z,1014.35
2019-03-31T04:56:44.545Z,1014.38
2019-03-31T04:57:44.324Z,1014.39
2019-03-31T04:58:44.598Z,1014.43
2019-03-31T04:59:44.277Z,1014.43
2019-03-31T05:01:44.281Z,1014.47
2019-03-31T05:02:44.208Z,1014.46
2019-03-31T05:03:44.181Z,1014.51
2019-03-31T05:04:44.460Z,1014.53
2019-03-31T05:06:44.113Z,1014.55
2019-03-31T05:07:44.090Z,1014.55
2019-03-31T05:08:44.204Z,1014.56
2019-03-31T05:09:44.147Z,1014.60
2019-03-31T05:10:45.059Z,1014.61
2019-03-31T05:11:43.999Z,1014.65
2019-03-31T05:12:43.970Z,1014.72
2019-03-31T05:13:43.949Z,1014.69
2019-03-31T05:14:43.946Z,1014.79
2019-03-31T05:15:43.903Z,1014.79
2019-03-31T05:16:44.234Z,1014.83
2019-03-31T05:18:43.838Z,1014.88
2019-03-31T05:19:43.806Z,1014.90
2019-03-31T05:20:43.787Z,1014.91
2019-03-31T05:22:43.743Z,1014.90
2019-03-31T05:23:43.965Z,1014.93
2019-03-31T05:25:43.769Z,1014.99
2019-03-31T05:26:43.671Z,1014.97
2019-03-31T05:27:43.779Z,1014.98
2019-03-31T05:28:44.328Z,1014.99
2019-03-31T05:29:43.938Z,1015.01
2019-03-31T05:30:43.690Z,1015.00
2019-03-31T05:31:43.540Z,1015.03
2019-03-31T05:32:43.541Z,1015.02
2019-03-31T05:33:43.479Z,1014.98
2019-03-31T05:34:43.459Z,1014.99
2019-03-31T05:36:43.760Z,1015.06
2019-03-31T05:37:50.716Z,1015.07
2019-03-31T05:38:43.467Z,1015.06
2019-03-31T05:39:43.342Z,1015.09
2019-03-31T05:40:43.319Z,1015.12
2019-03-31T05:41:43.394Z,1015.13
2019-03-31T05:42:43.376Z,1015.11
2019-03-31T05:43:43.657Z,1015.15
2019-03-31T05:44:43.926Z,1015.17
2019-03-31T05:45:43.308Z,1015.18
2019-03-31T05:46:43.183Z,1015.19
2019-03-31T05:47:43.179Z,1015.20
2019-03-31T05:48:43.173Z,1015.24
2019-03-31T05:49:43.225Z,1015.26
2019-03-31T05:50:43.829Z,1015.29
2019-03-31T05:51:43.179Z,1015.27
2019-03-31T05:52:43.044Z,1015.28
2019-03-31T05:53:43.180Z,1015.26
2019-03-31T05:54:42.998Z,1015.31
2019-03-31T05:55:42.983Z,1015.27
2019-03-31T05:57:43.120Z,1015.36
2019-03-31T05:58:43.355Z,1015.36
2019-03-31T05:59:42.982Z,1015.36
2019-03-31T06:01:42.836Z,1015.40
2019-03-31T06:02:42.819Z,1015.36
2019-03-31T06:04:42.781Z,1015.41
2019-03-31T06:05:43.083Z,1015.36
2019-03-31T06:06:43.034Z,1015.42
2019-03-31T06:07:42.705Z,1015.43
2019-03-31T06:08:43.392Z,1015.44
2019-03-31T06:09:42.663Z,1015.47
2019-03-31T06:10:42.635Z,1015.48
2019-03-31T06:11:42.621Z,1015.54
2019-03-31T06:14:42.945Z,1015.61
2019-03-31T06:15:42.521Z,1015.63
2019-03-31T06:16:42.509Z,1015.66
2019-03-31T06:18:42.750Z,1015.66
2019-03-31T06:21:42.687Z,1015.68
2019-03-31T06:22:42.420Z,1015.69
2019-03-31T06:23:42.421Z,1015.68
2019-03-31T06:24:42.427Z,1015.73
2019-03-31T06:25:42.526Z,1015.71
2019-03-31T06:26:42.274Z,1015.72
2019-03-31T06:27:42.658Z,1015.72
2019-03-31T06:28:42.532Z,1015.72
2019-03-31T06:29:42.209Z,1015.72
2019-03-31T06:30:42.192Z,1015.74
2019-03-31T06:31:42.180Z,1015.71
2019-03-31T06:33:42.429Z,1015.73
2019-03-31T06:34:47.679Z,1015.78
2019-03-31T06:35:42.166Z,1015.77
2019-03-31T06:36:42.065Z,1015.81
2019-03-31T06:37:42.191Z,1015.80
2019-03-31T06:38:42.181Z,1015.81
2019-03-31T06:39:42.314Z,1015.90
2019-03-31T06:40:42.036Z,1015.92
2019-03-31T06:41:42.130Z,1015.92
2019-03-31T06:43:42.006Z,1015.90
2019-03-31T06:44:42.348Z,1015.89
2019-03-31T06:45:42.155Z,1015.88
2019-03-31T06:46:41.835Z,1015.93
2019-03-31T06:48:41.786Z,1015.94
2019-03-31T06:49:42.494Z,1015.97
2019-03-31T06:50:41.844Z,1016.06
2019-03-31T06:51:42.139Z,1016.12
2019-03-31T06:52:41.806Z,1016.05
2019-03-31T06:53:41.736Z,1016.06
2019-03-31T06:54:41.667Z,1016.09
2019-03-31T06:55:41.645Z,1016.13
2019-03-31T06:56:41.714Z,1016.15
2019-03-31T06:57:42.102Z,1016.18
2019-03-31T06:58:41.673Z,1016.16
2019-03-31T07:00:41.833Z,1016.13
2019-03-31T07:02:41.558Z,1016.19
2019-03-31T07:03:41.476Z,1016.22
2019-03-31T07:04:41.776Z,1016.26
2019-03-31T07:05:41.439Z,1016.22
2019-03-31T07:06:41.405Z,1016.23
2019-03-31T07:07:41.398Z,1016.24
2019-03-31T07:09:41.354Z,1016.33
2019-03-31T07:10:41.524Z,1016.48
2019-03-31T07:11:41.602Z,1016.47
2019-03-31T07:12:41.290Z,1016.43
2019-03-31T07:13:41.288Z,1016.44
2019-03-31T07:14:41.335Z,1016.43
2019-03-31T07:15:41.216Z,1016.39
2019-03-31T07:16:41.271Z,1016.40
2019-03-31T07:18:42.360Z,1016.41
2019-03-31T07:19:41.427Z,1016.33
2019-03-31T07:20:41.122Z,1016.35
2019-03-31T07:21:41.188Z,1016.34
2019-03-31T07:22:41.897Z,1016.25
2019-03-31T07:24:41.369Z,1016.32
2019-03-31T07:25:41.019Z,1016.34
2019-03-31T07:27:41.361Z,1016.42
2019-03-31T07:28:40.941Z,1016.52
2019-03-31T07:29:40.919Z,1016.51
2019-03-31T07:31:41.028Z,1016.59
2019-03-31T07:33:40.933Z,1016.68
2019-03-31T07:35:41.322Z,1016.66
2019-03-31T07:36:40.781Z,1016.69
2019-03-31T07:37:47.041Z,1016.72
2019-03-31T07:38:40.909Z,1016.74
2019-03-31T07:39:40.892Z,1016.77
2019-03-31T07:40:40.764Z,1016.77
2019-03-31T07:41:40.849Z,1016.84
2019-03-31T07:42:40.956Z,1016.83
2019-03-31T07:43:40.662Z,1016.94
2019-03-31T07:44:40.622Z,1017.12
2019-03-31T07:45:40.662Z,1017.91
2019-03-31T07:46:40.761Z,1017.85
2019-03-31T07:47:40.602Z,1017.56
2019-03-31T07:48:40.954Z,1017.25
2019-03-31T07:50:40.618Z,1017.37
2019-03-31T07:51:40.473Z,1016.98
2019-03-31T07:52:40.552Z,1016.98
2019-03-31T07:53:40.431Z,1017.07
2019-03-31T07:54:40.805Z,1017.98
2019-03-31T07:55:40.400Z,1018.52
2019-03-31T07:56:40.390Z,1018.64
2019-03-31T07:57:40.385Z,1018.87
2019-03-31T07:58:40.363Z,1018.81
2019-03-31T07:59:40.317Z,1018.68
2019-03-31T08:01:40.585Z,1019.21
2019-03-31T08:03:40.369Z,1017.20
2019-03-31T08:04:40.302Z,1017.71
2019-03-31T08:05:40.207Z,1018.69
2019-03-31T08:06:40.361Z,1021.03
2019-03-31T08:07:40.481Z,1022.95
2019-03-31T08:08:40.154Z,1022.46
2019-03-31T08:09:40.263Z,1020.47
2019-03-31T08:11:40.106Z,1021.50
2019-03-31T08:12:40.099Z,1021.53
2019-03-31T08:13:40.397Z,1021.21
2019-03-31T08:14:40.053Z,1020.42
2019-03-31T08:15:40.046Z,1019.62
2019-03-31T08:16:40.088Z,1019.16
2019-03-31T08:17:42.783Z,1018.85
2019-03-31T08:18:40.081Z,1018.70
2019-03-31T08:20:39.969Z,1018.57
2019-03-31T08:21:40.041Z,1018.60
2019-03-31T08:22:40.070Z,1017.90
2019-03-31T08:25:39.905Z,1018.48
2019-03-31T08:26:40.200Z,1017.77
2019-03-31T08:27:39.848Z,1018.77
2019-03-31T08:28:39.832Z,1018.66
2019-03-31T08:29:39.917Z,1018.16
2019-03-31T08:30:39.976Z,1018.05
2019-03-31T08:31:39.817Z,1017.93
2019-03-31T08:32:39.871Z,1017.77
2019-03-31T08:33:40.384Z,1017.62
2019-03-31T08:34:39.881Z,1017.64
2019-03-31T08:38:39.761Z,1018.09
2019-03-31T08:39:39.666Z,1017.81
2019-03-31T08:40:39.951Z,1017.78
2019-03-31T08:41:39.692Z,1017.97
2019-03-31T08:42:39.704Z,1018.64
2019-03-31T08:43:39.628Z,1018.88
2019-03-31T08:44:39.588Z,1018.71
2019-03-31T08:45:39.699Z,1018.28
2019-03-31T08:46:39.573Z,1018.21
2019-03-31T08:47:39.855Z,1018.33
2019-03-31T08:48:39.549Z,1018.13
2019-03-31T08:49:39.627Z,1018.19
2019-03-31T08:50:39.503Z,1018.28
2019-03-31T08:51:39.663Z,1018.57
2019-03-31T08:52:41.189Z,1018.77
2019-03-31T08:53:39.793Z,1018.46
2019-03-31T08:54:39.840Z,1018.21
2019-03-31T08:55:39.605Z,1018.22
2019-03-31T08:56:39.416Z,1018.30
2019-03-31T08:58:39.389Z,1018.44
2019-03-31T08:59:39.475Z,1018.33
2019-03-31T09:00:39.367Z,1018.24
2019-03-31T09:01:39.774Z,1018.58
2019-03-31T09:02:39.325Z,1018.73
2019-03-31T09:03:39.442Z,1018.74
2019-03-31T09:04:39.347Z,1018.84
2019-03-31T09:06:39.318Z,1018.96
2019-03-31T09:08:39.528Z,1018.84
2019-03-31T09:09:39.215Z,1018.88
2019-03-31T09:10:39.197Z,1019.01
2019-03-31T09:11:39.392Z,1019.01
2019-03-31T09:12:39.165Z,1018.86
2019-03-31T09:13:39.292Z,1018.94
2019-03-31T09:14:39.136Z,1018.78
2019-03-31T09:15:39.804Z,1018.75
2019-03-31T09:16:39.208Z,1018.31
2019-03-31T09:17:39.110Z,1019.07
2019-03-31T09:18:39.204Z,1019.15
2019-03-31T09:19:39.096Z,1019.16
2019-03-31T09:20:39.213Z,1019.10
2019-03-31T09:22:39.477Z,1018.29
2019-03-31T09:24:39.028Z,1018.26
2019-03-31T09:25:39.158Z,1018.33
2019-03-31T09:26:39.199Z,1018.39
2019-03-31T09:27:39.203Z,1019.00
2019-03-31T09:28:39.326Z,1018.57
2019-03-31T09:29:39.122Z,1018.55
2019-03-31T09:31:39.108Z,1018.58
2019-03-31T09:32:38.949Z,1018.32
2019-03-31T09:33:39.559Z,1018.25
2019-03-31T09:34:39.184Z,1018.27
2019-03-31T09:35:38.925Z,1018.35
2019-03-31T09:36:38.878Z,1018.31
2019-03-31T09:37:38.861Z,1018.48
2019-03-31T09:40:39.204Z,1018.24
2019-03-31T09:41:38.798Z,1018.31
2019-03-31T09:43:38.923Z,1018.62
2019-03-31T09:44:38.753Z,1018.29
2019-03-31T09:45:38.779Z,1018.35
2019-03-31T09:47:39.049Z,1018.21
2019-03-31T09:48:38.793Z,1019.11
2019-03-31T09:49:38.679Z,1019.15
2019-03-31T09:50:38.699Z,1019.28
2019-03-31T09:51:38.942Z,1019.37
2019-03-31T09:52:38.771Z,1019.43
2019-03-31T09:53:39.132Z,1019.50
2019-03-31T09:54:38.697Z,1019.52
2019-03-31T09:56:38.624Z,1019.67
2019-03-31T09:57:38.688Z,1019.00
2019-03-31T09:58:38.768Z,1018.29
2019-03-31T09:59:38.945Z,1019.27
2019-03-31T10:00:38.946Z,1019.61
2019-03-31T10:01:38.513Z,1019.45
2019-03-31T10:02:38.492Z,1018.29
2019-03-31T10:03:38.481Z,1018.19
2019-03-31T10:04:38.481Z,1018.14
2019-03-31T10:05:38.618Z,1018.16
2019-03-31T10:06:38.549Z,1018.14
2019-03-31T10:07:38.831Z,1018.09
2019-03-31T10:08:38.425Z,1017.99
2019-03-31T10:10:38.478Z,1018.07
2019-03-31T10:11:38.394Z,1018.09
2019-03-31T10:13:38.452Z,1018.30
2019-03-31T10:14:38.714Z,1018.26
2019-03-31T10:15:39.829Z,1018.27
2019-03-31T10:16:38.490Z,1018.33
2019-03-31T10:17:38.375Z,1019.37
2019-03-31T10:18:38.412Z,1018.22
2019-03-31T10:21:38.368Z,1019.19
2019-03-31T10:22:38.583Z,1018.81
2019-03-31T10:23:38.293Z,1018.26
2019-03-31T10:24:38.191Z,1018.24
2019-03-31T10:25:38.425Z,1018.15
2019-03-31T10:26:38.182Z,1018.13
2019-03-31T10:27:38.192Z,1018.21
2019-03-31T10:28:38.365Z,1018.96
2019-03-31T10:29:38.560Z,1019.16
2019-03-31T10:30:38.161Z,1019.18
2019-03-31T10:31:38.434Z,1019.20
2019-03-31T10:32:38.184Z,1019.22
2019-03-31T10:33:38.174Z,1019.16
2019-03-31T10:34:38.147Z,1019.07
2019-03-31T10:37:38.037Z,1019.32
2019-03-31T10:38:38.298Z,1019.20
2019-03-31T10:39:37.990Z,1019.26
2019-03-31T10:40:38.022Z,1019.30
2019-03-31T10:41:38.091Z,1019.15
2019-03-31T10:42:37.949Z,1018.44
2019-03-31T10:43:38.222Z,1019.29
2019-03-31T10:44:38.181Z,1019.24
2019-03-31T10:45:38.505Z,1018.74
2019-03-31T10:46:37.990Z,1018.41
2019-03-31T10:47:38.179Z,1018.37
2019-03-31T10:48:38.095Z,1018.30
2019-03-31T10:49:37.975Z,1018.30
2019-03-31T10:51:38.151Z,1018.68
2019-03-31T10:53:37.943Z,1018.41
2019-03-31T10:54:37.840Z,1018.94
2019-03-31T10:55:37.904Z,1018.79
2019-03-31T10:56:37.911Z,1018.95
2019-03-31T10:57:38.092Z,1018.85
2019-03-31T11:01:37.737Z,1018.91
2019-03-31T11:02:37.724Z,1018.97
2019-03-31T11:03:38.011Z,1018.95
2019-03-31T11:04:37.698Z,1018.87
2019-03-31T11:05:37.991Z,1018.89
2019-03-31T11:06:37.677Z,1018.82
2019-03-31T11:08:37.820Z,1018.82
2019-03-31T11:09:38.056Z,1018.69
2019-03-31T11:10:37.691Z,1018.86
2019-03-31T11:11:37.637Z,1019.06
2019-03-31T11:12:37.914Z,1019.01
2019-03-31T11:15:37.685Z,1018.96
2019-03-31T11:17:37.911Z,1018.97
2019-03-31T11:18:37.666Z,1019.05
2019-03-31T11:19:37.608Z,1018.94
2019-03-31T11:20:37.551Z,1018.85
2019-03-31T11:21:40.311Z,1018.87
2019-03-31T11:22:37.568Z,1018.75
2019-03-31T11:23:37.937Z,1018.60
2019-03-31T11:24:37.613Z,1018.78
2019-03-31T11:25:37.604Z,1018.77
2019-03-31T11:26:37.503Z,1018.88
2019-03-31T11:27:37.592Z,1019.07
2019-03-31T11:28:37.528Z,1019.01
2019-03-31T11:29:37.776Z,1018.94
2019-03-31T11:30:37.632Z,1018.95
2019-03-31T11:31:37.837Z,1018.97
2019-03-31T11:32:37.533Z,1019.02
2019-03-31T11:33:37.432Z,1019.04
2019-03-31T11:34:37.445Z,1019.11
2019-03-31T11:35:37.405Z,1019.13
2019-03-31T11:36:37.693Z,1019.09
2019-03-31T11:37:37.376Z,1019.12
2019-03-31T11:38:37.377Z,1019.12
2019-03-31T11:39:37.363Z,1019.10
2019-03-31T11:40:37.335Z,1019.19
2019-03-31T11:41:37.325Z,1019.16
2019-03-31T11:44:37.304Z,1019.24
2019-03-31T11:46:37.587Z,1019.21
2019-03-31T11:47:37.607Z,1019.26
2019-03-31T11:48:37.630Z,1019.28
2019-03-31T11:49:37.962Z,1019.30
2019-03-31T11:51:37.239Z,1019.33
2019-03-31T11:52:37.245Z,1019.34
2019-03-31T11:53:37.533Z,1019.29
2019-03-31T11:55:37.206Z,1018.60
2019-03-31T11:57:37.188Z,1019.27
2019-03-31T12:01:37.480Z,1019.15
2019-03-31T12:04:37.354Z,1019.24
2019-03-31T12:05:37.136Z,1019.17
2019-03-31T12:07:46.776Z,1019.12
2019-03-31T12:08:37.515Z,1019.02
2019-03-31T12:11:37.263Z,1019.09
2019-03-31T12:14:37.350Z,1019.22
2019-03-31T12:16:37.050Z,1019.22
2019-03-31T12:17:37.026Z,1019.20
2019-03-31T12:18:37.028Z,1019.18
2019-03-31T12:20:37.121Z,1019.15
2019-03-31T12:21:37.320Z,1019.08
2019-03-31T12:23:37.019Z,1019.22
2019-03-31T12:24:37.077Z,1019.26
2019-03-31T12:25:37.195Z,1019.15
2019-03-31T12:27:36.953Z,1019.21
2019-03-31T12:29:37.369Z,1019.10
2019-03-31T12:31:36.918Z,1019.19
2019-03-31T12:32:38.649Z,1019.19
2019-03-31T12:33:36.903Z,1019.17
2019-03-31T12:34:37.062Z,1019.24
2019-03-31T12:37:42.778Z,1019.26
2019-03-31T12:38:36.866Z,1019.13
2019-03-31T12:40:36.912Z,1018.69
2019-03-31T12:41:37.349Z,1019.19
2019-03-31T12:42:37.598Z,1019.21
2019-03-31T12:44:36.839Z,1019.25
2019-03-31T12:45:36.861Z,1019.29
2019-03-31T12:46:36.819Z,1018.82
2019-03-31T12:47:37.117Z,1018.94
2019-03-31T12:48:36.818Z,1019.23
2019-03-31T12:52:46.671Z,1019.15
2019-03-31T12:53:37.004Z,1019.12
2019-03-31T12:55:36.736Z,1018.99
2019-03-31T12:56:37.027Z,1018.31
2019-03-31T12:58:36.921Z,1019.05
2019-03-31T12:59:37.018Z,1019.03
2019-03-31T13:00:36.701Z,1019.04
2019-03-31T13:01:36.692Z,1019.07
2019-03-31T13:02:37.773Z,1019.08
2019-03-31T13:03:36.805Z,1019.04
2019-03-31T13:04:36.881Z,1019.09
2019-03-31T13:06:36.964Z,1019.11
2019-03-31T13:07:36.650Z,1019.11
2019-03-31T13:08:36.664Z,1019.08
2019-03-31T13:09:36.628Z,1019.10
2019-03-31T13:10:36.635Z,1019.11
2019-03-31T13:12:36.806Z,1019.08
2019-03-31T13:13:37.371Z,1019.10
2019-03-31T13:14:36.661Z,1019.07
2019-03-31T13:15:36.587Z,1019.11
2019-03-31T13:16:36.812Z,1019.07
2019-03-31T13:17:36.585Z,1019.06
2019-03-31T13:19:36.956Z,1019.07
2019-03-31T13:20:36.988Z,1019.12
2019-03-31T13:21:37.033Z,1019.11
2019-03-31T13:22:36.530Z,1019.11
2019-03-31T13:23:36.826Z,1019.10
2019-03-31T13:26:36.625Z,1019.09
2019-03-31T13:31:36.891Z,1019.03
2019-03-31T13:32:36.546Z,1019.02
2019-03-31T13:33:36.626Z,1019.05
2019-03-31T13:35:37.992Z,1018.99
2019-03-31T13:36:36.432Z,1019.10
2019-03-31T13:37:36.422Z,1019.12
2019-03-31T13:38:36.739Z,1019.18
2019-03-31T13:40:36.486Z,1019.44
2019-03-31T13:41:36.474Z,1019.74
2019-03-31T13:42:36.440Z,1019.78
2019-03-31T13:46:37.040Z,1020.31
2019-03-31T13:47:36.351Z,1020.55
2019-03-31T13:48:36.407Z,1020.13
2019-03-31T13:49:36.326Z,1020.18
2019-03-31T13:51:36.654Z,1020.19
2019-03-31T13:55:36.396Z,1019.97
2019-03-31T13:56:37.246Z,1019.93
2019-03-31T13:58:38.294Z,1019.76
2019-03-31T13:59:36.282Z,1019.51
2019-03-31T14:00:36.751Z,1019.56
2019-03-31T14:01:36.410Z,1019.46
2019-03-31T14:02:36.338Z,1019.38
2019-03-31T14:03:37.083Z,1019.42
2019-03-31T14:04:50.686Z,1019.33
2019-03-31T14:06:36.668Z,1019.29
2019-03-31T14:09:36.244Z,1019.50
2019-03-31T14:10:36.932Z,1019.57
2019-03-31T14:11:36.380Z,1019.74
2019-03-31T14:12:36.469Z,1019.71
2019-03-31T14:13:36.152Z,1019.74
2019-03-31T14:14:36.149Z,1019.77
2019-03-31T14:15:36.434Z,1019.89
2019-03-31T14:18:36.406Z,1019.85
2019-03-31T14:19:36.515Z,1019.63
2019-03-31T14:20:36.216Z,1019.75
2019-03-31T14:21:36.091Z,1019.75
2019-03-31T14:23:36.088Z,1019.69
2019-03-31T14:24:36.388Z,1019.38
2019-03-31T14:26:36.051Z,1019.18
2019-03-31T14:28:36.050Z,1019.13
2019-03-31T14:29:36.043Z,1019.11
2019-03-31T14:30:36.325Z,1019.26
2019-03-31T14:31:36.170Z,1019.38
2019-03-31T14:32:36.018Z,1019.32
2019-03-31T14:35:38.028Z,1019.44
2019-03-31T14:36:36.363Z,1019.54
2019-03-31T14:37:36.011Z,1019.42
2019-03-31T14:38:40.350Z,1019.43
2019-03-31T14:39:36.105Z,1019.28
2019-03-31T14:41:35.987Z,1019.16
2019-03-31T14:42:36.227Z,1019.09
2019-03-31T14:46:35.896Z,1018.98
2019-03-31T14:48:35.879Z,1019.00
2019-03-31T14:51:36.816Z,1018.99
2019-03-31T14:53:35.829Z,1018.93
2019-03-31T14:55:36.168Z,1018.98